Time;durP1;ratioP1;P1;durP2;ratioP2;P2;SDS_P1;SDS_P2;PMS_P1;PMS_P2;Temp;Humidity;BMP_temperature;BMP_pressure;BME280_temperature;BME280_humidity;BME280_pressure;Samples;Min_cycle;Max_cycle;Signal;HPM_P1;HPM_P2
2022/04/17 00:00:26;;;;;;;9.82;7.43;;;;;;;9.08;44.11;102915.84;5011677;28;20061;-76
2022/04/17 00:02:52;;;;;;;9.63;6.93;;;;;;;9.04;44.02;102906.34;5011958;28;20393;-75
2022/04/17 00:05:27;;;;;;;10.52;7.55;;;;;;;8.99;44.37;102905.66;5012127;28;20028;-75
2022/04/17 00:07:52;;;;;;;9.93;7.00;;;;;;;8.95;44.55;102896.16;4993573;28;20029;-75
2022/04/17 00:10:18;;;;;;;10.45;7.20;;;;;;;8.91;44.91;102900.66;5012442;28;20037;-74
2022/04/17 00:12:44;;;;;;;10.32;7.50;;;;;;;8.89;44.53;102904.25;5012944;28;20053;-75
2022/04/17 00:15:10;;;;;;;11.50;7.32;;;;;;;8.88;44.75;102906.03;5011789;28;20512;-74
2022/04/17 00:17:44;;;;;;;12.10;8.23;;;;;;;8.84;45.10;102900.94;5012238;28;20022;-74
2022/04/17 00:20:17;;;;;;;10.43;7.03;;;;;;;8.84;44.78;102906.19;5012765;28;20034;-75
2022/04/17 00:22:45;;;;;;;12.40;7.38;;;;;;;8.76;44.97;102901.16;5011698;28;20482;-75
2022/04/17 00:25:12;;;;;;;12.77;7.10;;;;;;;8.71;44.69;102903.94;5011965;28;20084;-75
2022/04/17 00:27:39;;;;;;;11.65;7.20;;;;;;;8.67;44.39;102907.59;5012919;28;20109;-75
2022/04/17 00:30:05;;;;;;;10.15;7.00;;;;;;;8.64;44.43;102909.44;4993737;28;20058;-75
2022/04/17 00:32:31;;;;;;;8.73;6.47;;;;;;;8.63;44.69;102907.72;5013391;28;20036;-75
2022/04/17 00:34:57;;;;;;;8.68;6.32;;;;;;;8.58;44.22;102907.88;5012420;28;20025;-75
2022/04/17 00:37:23;;;;;;;9.85;6.80;;;;;;;8.57;44.30;102902.69;5010778;28;20500;-75
2022/04/17 00:39:51;;;;;;;9.70;6.57;;;;;;;8.54;44.95;102902.78;5012940;28;20030;-75
2022/04/17 00:42:17;;;;;;;10.52;6.85;;;;;;;8.53;44.83;102903.69;5011944;28;20397;-75
2022/04/17 00:44:42;;;;;;;9.93;6.68;;;;;;;8.51;44.77;102895.88;5012647;28;20029;-75
2022/04/17 00:47:12;;;;;;;8.20;6.10;;;;;;;8.44;44.82;102897.00;5012164;28;20113;-76
2022/04/17 00:49:37;;;;;;;8.70;6.03;;;;;;;8.38;45.32;102894.53;5009819;28;20025;-76
2022/04/17 00:52:04;;;;;;;8.75;6.05;;;;;;;8.32;45.42;102892.09;5011551;28;20034;-74
2022/04/17 00:54:30;;;;;;;9.38;5.75;;;;;;;8.30;44.81;102899.13;5012334;28;20355;-74
2022/04/17 00:56:57;;;;;;;8.43;6.20;;;;;;;8.25;44.89;102885.31;5011497;28;20053;-74
2022/04/17 00:59:23;;;;;;;9.25;6.15;;;;;;;8.25;44.78;102893.19;5011804;28;20089;-74
2022/04/17 01:01:49;;;;;;;10.52;5.80;;;;;;;8.24;44.60;102888.84;5011746;28;20025;-74
2022/04/17 01:04:16;;;;;;;9.68;6.13;;;;;;;8.17;44.64;102891.66;4993811;28;20083;-74
2022/04/17 01:06:42;;;;;;;9.52;5.85;;;;;;;8.19;44.43;102883.75;4995799;28;20032;-74
2022/04/17 01:09:07;;;;;;;10.52;5.55;;;;;;;8.18;44.94;102893.38;5009112;28;20386;-74
2022/04/17 01:11:48;;;;;;;7.57;5.88;;;;;;;8.16;44.82;102883.84;4993225;28;20026;-74
2022/04/17 01:14:13;;;;;;;9.18;6.13;;;;;;;8.12;44.37;102887.47;4993535;28;20026;-74
2022/04/17 01:16:44;;;;;;;8.40;5.57;;;;;;;8.10;44.08;102887.53;5009782;28;20034;-74
2022/04/17 01:19:12;;;;;;;10.20;5.93;;;;;;;8.08;44.64;102884.09;5010440;28;20494;-75
2022/04/17 01:21:42;;;;;;;8.13;5.95;;;;;;;8.00;44.65;102880.81;5011575;28;20028;-76
2022/04/17 01:26:57;;;;;;;7.72;5.75;;;;;;;7.98;44.88;102892.25;5002126;28;20049;-76
2022/04/17 01:29:30;;;;;;;8.30;5.80;;;;;;;7.98;44.55;102894.88;5011337;28;20549;-76
2022/04/17 01:31:56;;;;;;;8.75;5.68;;;;;;;7.94;45.11;102898.50;5011137;28;20021;-76
2022/04/17 01:34:25;;;;;;;8.65;5.45;;;;;;;7.90;45.57;102887.25;5011242;28;20474;-76
2022/04/17 01:36:51;;;;;;;6.82;5.68;;;;;;;7.84;45.56;102888.31;5014269;28;20112;-76
2022/04/17 01:39:18;;;;;;;9.60;5.78;;;;;;;7.85;46.31;102894.41;4998437;28;20038;-76
2022/04/17 01:41:45;;;;;;;8.10;5.85;;;;;;;7.82;46.88;102890.09;4992780;28;20042;-76
2022/04/17 01:44:11;;;;;;;7.95;5.70;;;;;;;7.73;46.94;102884.28;5011211;28;20124;-76
2022/04/17 01:46:36;;;;;;;7.68;5.65;;;;;;;7.75;46.50;102885.09;5010813;28;20396;-76
2022/04/17 01:49:06;;;;;;;9.73;6.05;;;;;;;7.73;47.03;102893.00;5011171;28;20026;-76
2022/04/17 01:51:38;;;;;;;8.18;5.75;;;;;;;7.69;47.12;102890.53;5011684;28;20084;-75
2022/04/17 01:54:09;;;;;;;11.10;6.07;;;;;;;7.67;47.23;102889.72;4991989;28;20143;-75
2022/04/17 01:56:36;;;;;;;8.48;6.03;;;;;;;7.59;48.04;102891.66;4992976;28;20065;-75
2022/04/17 01:59:06;;;;;;;9.13;6.10;;;;;;;7.53;48.38;102896.19;5010487;28;20129;-75
2022/04/17 02:01:33;;;;;;;8.80;5.80;;;;;;;7.50;48.13;102891.03;5000481;28;20060;-75
2022/04/17 02:04:00;;;;;;;8.35;6.32;;;;;;;7.44;49.03;102896.44;4988701;28;20032;-75
2022/04/17 02:06:25;;;;;;;7.95;6.18;;;;;;;7.40;48.45;102892.19;5009636;28;20045;-75
2022/04/17 02:08:51;;;;;;;8.23;6.13;;;;;;;7.34;49.20;102887.13;5009803;28;20049;-75
2022/04/17 02:11:18;;;;;;;8.95;6.43;;;;;;;7.23;49.70;102883.97;4991235;28;20076;-74
2022/04/17 02:13:45;;;;;;;10.55;6.28;;;;;;;7.13;50.50;102887.72;5003811;28;20371;-74
2022/04/17 02:16:11;;;;;;;10.60;6.13;;;;;;;7.02;50.56;102887.16;5009665;28;20077;-74
2022/04/17 02:18:36;;;;;;;8.07;6.00;;;;;;;6.86;51.02;102881.47;5009996;28;20349;-74
2022/04/17 02:21:02;;;;;;;9.70;6.75;;;;;;;6.86;50.44;102881.47;5010008;28;20025;-74
2022/04/17 02:23:28;;;;;;;6.72;5.82;;;;;;;6.80;50.72;102884.19;5010638;28;20021;-74
2022/04/17 02:26:01;;;;;;;8.38;5.85;;;;;;;6.71;50.64;102867.00;5008178;28;20061;-74
2022/04/17 02:28:29;;;;;;;;;;;;;;;6.94;49.88;102882.13;5000247;28;20129;-74
2022/04/17 02:30:54;;;;;;;8.95;5.70;;;;;;;6.79;49.89;102877.25;4991872;28;19940;-76
2022/04/17 02:33:28;;;;;;;7.35;5.68;;;;;;;6.67;49.85;102867.97;5010153;28;20152;-75
2022/04/17 02:35:54;;;;;;;9.05;5.63;;;;;;;6.66;50.31;102879.34;5008131;28;20060;-76
2022/04/17 02:38:19;;;;;;;9.27;6.03;;;;;;;6.62;50.38;102884.69;5010330;28;20030;-74
2022/04/17 02:40:45;;;;;;;7.68;5.55;;;;;;;6.54;50.57;102887.50;5010315;28;20029;-76
2022/04/17 02:43:11;;;;;;;7.70;5.72;;;;;;;6.43;51.10;102885.16;5009283;28;20037;-74
2022/04/17 02:45:37;;;;;;;9.25;5.70;;;;;;;6.31;51.37;102882.78;5010544;28;20034;-74
2022/04/17 02:48:03;;;;;;;8.20;5.95;;;;;;;6.33;51.10;102883.63;5009873;28;20048;-74
2022/04/17 02:50:29;;;;;;;6.53;5.50;;;;;;;6.35;51.58;102870.50;4992279;28;20022;-74
2022/04/17 02:52:55;;;;;;;8.57;5.53;;;;;;;6.32;52.27;102871.44;4992627;28;20022;-76
2022/04/17 02:55:21;;;;;;;7.13;5.72;;;;;;;6.28;51.85;102870.66;5009895;28;20105;-74
2022/04/17 02:57:46;;;;;;;11.32;6.10;;;;;;;6.30;52.16;102873.22;5008614;28;20422;-74
2022/04/17 03:00:12;;;;;;;9.35;6.10;;;;;;;6.29;52.07;102876.75;5009703;28;20034;-74
2022/04/17 03:05:37;;;;;;;8.93;5.97;;;;;;;6.26;51.86;102863.75;5009384;28;20092;-74
2022/04/17 03:08:19;;;;;;;10.20;5.70;;;;;;;6.25;51.33;102868.13;4991582;28;20040;-74
2022/04/17 03:10:48;;;;;;;9.70;5.88;;;;;;;6.16;52.11;102854.41;5008145;28;20026;-74
2022/04/17 03:13:15;;;;;;;9.15;6.05;;;;;;;6.16;51.73;102860.50;5008709;28;20686;-74
2022/04/17 03:15:40;;;;;;;6.35;5.40;;;;;;;6.11;52.13;102859.75;5008696;28;20418;-75
2022/04/17 03:18:10;;;;;;;8.02;5.90;;;;;;;6.05;53.05;102856.41;5008261;28;20014;-74
2022/04/17 03:20:36;;;;;;;9.15;6.00;;;;;;;5.98;52.60;102860.91;5009041;28;20118;-74
2022/04/17 03:23:10;;;;;;;8.75;5.32;;;;;;;5.91;52.58;102854.97;5008934;28;20028;-74
2022/04/17 03:25:39;;;;;;;8.30;6.00;;;;;;;5.86;53.22;102848.09;5007680;28;20045;-74
2022/04/17 03:28:06;;;;;;;7.65;5.63;;;;;;;5.84;53.12;102847.25;5008895;28;20123;-74
2022/04/17 03:30:32;;;;;;;12.60;5.78;;;;;;;5.84;53.64;102848.13;4991469;28;20032;-74
2022/04/17 03:33:02;;;;;;;7.45;5.50;;;;;;;5.85;53.11;102848.97;5008520;28;20022;-75
2022/04/17 03:35:29;;;;;;;7.20;5.43;;;;;;;5.83;53.77;102848.16;5008587;28;20030;-74
2022/04/17 03:37:55;;;;;;;10.00;5.55;;;;;;;5.77;53.72;102846.53;5009164;28;20018;-75
2022/04/17 03:40:20;;;;;;;7.68;5.35;;;;;;;5.76;54.11;102841.34;5008415;28;20033;-75
2022/04/17 03:42:47;;;;;;;8.90;6.00;;;;;;;5.78;54.03;102842.19;4991859;28;20034;-74
2022/04/17 03:45:14;;;;;;;8.50;5.60;;;;;;;5.70;53.82;102844.97;5008983;28;20014;-74
2022/04/17 03:47:40;;;;;;;7.85;5.70;;;;;;;5.61;54.22;102840.81;4991096;28;20018;-74
2022/04/17 03:50:07;;;;;;;8.77;5.72;;;;;;;5.53;55.12;102847.06;5009475;28;20366;-74
2022/04/17 03:52:43;;;;;;;9.02;5.60;;;;;;;5.48;54.93;102839.31;5008985;28;20030;-74
2022/04/17 03:55:10;;;;;;;8.35;6.07;;;;;;;5.45;55.48;102831.56;5005000;28;20018;-74
2022/04/17 03:57:36;;;;;;;9.52;5.70;;;;;;;5.44;55.58;102835.06;5009633;28;20032;-75
2022/04/17 04:00:06;;;;;;;7.40;5.85;;;;;;;5.43;55.65;102841.16;4973055;28;20043;-73
2022/04/17 04:02:32;;;;;;;7.90;5.68;;;;;;;5.44;55.23;102837.66;4969426;28;20027;-74
2022/04/17 04:04:57;;;;;;;8.02;6.03;;;;;;;5.44;54.90;102832.44;4967060;28;20117;-76
2022/04/17 04:07:24;;;;;;;7.47;5.68;;;;;;;5.42;55.18;102834.22;4966981;28;20429;-74
2022/04/17 04:09:49;;;;;;;9.13;5.72;;;;;;;5.42;55.02;102834.22;4968825;28;20435;-76
2022/04/17 04:12:16;;;;;;;7.78;5.80;;;;;;;5.39;55.14;102830.81;4968435;28;20023;-74
2022/04/17 04:14:42;;;;;;;8.32;5.95;;;;;;;5.37;55.34;102825.63;4968086;28;20031;-74
2022/04/17 04:17:09;;;;;;;7.70;5.68;;;;;;;5.36;54.97;102823.91;4969593;28;20026;-76
2022/04/17 04:19:34;;;;;;;8.68;5.90;;;;;;;5.35;54.87;102823.06;4970282;28;20216;-77
2022/04/17 04:22:00;;;;;;;9.15;5.60;;;;;;;5.32;54.83;102810.06;4967788;28;20497;-76
2022/04/17 04:24:26;;;;;;;8.98;5.82;;;;;;;5.34;55.38;102823.09;4982059;28;20172;-76
2022/04/17 04:29:37;;;;;;;7.10;5.43;;;;;;;5.26;55.27;102818.03;4972730;28;20045;-76
2022/04/17 04:32:03;;;;;;;8.40;5.72;;;;;;;5.22;55.91;102815.50;4973942;28;20027;-76
2022/04/17 04:34:30;;;;;;;9.05;5.75;;;;;;;5.18;55.48;102819.03;4971440;28;20085;-74
2022/04/17 04:36:56;;;;;;;10.18;6.03;;;;;;;5.17;55.67;102819.94;4973618;28;20093;-73
2022/04/17 04:39:21;;;;;;;8.38;5.80;;;;;;;5.14;55.80;102822.59;4973187;28;20483;-74
2022/04/17 04:41:46;;;;;;;11.32;6.13;;;;;;;5.05;56.55;102823.66;4972638;28;20121;-74
2022/04/17 04:44:12;;;;;;;10.60;6.32;;;;;;;5.00;57.29;102815.91;4968831;28;20039;-74
2022/04/17 04:46:38;;;;;;;11.10;6.03;;;;;;;4.96;56.42;102811.66;4972196;28;20499;-73
2022/04/17 04:51:48;;;;;;;11.85;6.50;;;;;;;4.80;57.71;102815.41;4961912;28;20435;-74
2022/04/17 04:54:14;;;;;;;7.57;6.15;;;;;;;4.77;57.40;102798.97;4961741;28;20023;-74
2022/04/17 04:56:40;;;;;;;8.00;6.22;;;;;;;4.82;57.39;102811.06;4967691;28;20030;-76
2022/04/17 04:59:05;;;;;;;9.95;6.32;;;;;;;4.81;57.50;102809.34;4974578;28;20042;-76
2022/04/17 05:01:31;;;;;;;8.50;6.43;;;;;;;4.79;58.05;102813.69;4988131;28;20076;-76
2022/04/17 05:03:56;;;;;;;13.93;6.93;;;;;;;4.78;58.32;102811.97;4997374;28;20050;-76
2022/04/17 05:06:22;;;;;;;11.63;7.00;;;;;;;4.79;57.77;102810.22;5011167;28;20025;-76
2022/04/17 05:08:48;;;;;;;9.15;6.45;;;;;;;4.70;58.33;102808.66;4991237;28;20052;-74
2022/04/17 05:11:14;;;;;;;9.63;7.10;;;;;;;4.69;58.47;102813.00;4976951;28;20033;-74
2022/04/17 05:13:43;;;;;;;11.82;7.10;;;;;;;4.67;58.65;102814.78;5002594;28;20425;-74
2022/04/17 05:16:10;;;;;;;10.70;7.32;;;;;;;4.65;59.23;102807.88;4995377;28;20066;-74
2022/04/17 05:18:35;;;;;;;11.65;7.18;;;;;;;4.58;59.01;102811.47;5002068;28;20553;-74
2022/04/17 05:21:01;;;;;;;11.25;7.05;;;;;;;4.64;59.42;102821.81;5006782;28;20117;-74
2022/04/17 05:23:29;;;;;;;10.57;7.40;;;;;;;4.67;59.35;102826.97;5007187;28;20022;-74
2022/04/17 05:25:57;;;;;;;9.43;7.00;;;;;;;4.65;59.42;102823.53;5006887;28;20022;-74
2022/04/17 05:28:23;;;;;;;10.10;7.00;;;;;;;4.67;59.16;102821.75;4982687;28;20025;-74
2022/04/17 05:30:49;;;;;;;9.70;6.65;;;;;;;4.71;59.09;102824.28;5009985;28;20029;-73
2022/04/17 05:33:18;;;;;;;12.57;7.20;;;;;;;4.73;59.23;102821.63;4982331;28;20097;-74
2022/04/17 05:35:43;;;;;;;10.23;6.57;;;;;;;4.77;59.16;102823.28;4986699;28;20036;-74
2022/04/17 05:38:09;;;;;;;8.52;6.85;;;;;;;4.80;58.51;102827.59;5008280;28;20022;-74
2022/04/17 05:40:37;;;;;;;10.32;6.88;;;;;;;4.85;58.08;102824.03;4999559;28;20046;-76
2022/04/17 05:43:04;;;;;;;10.27;7.00;;;;;;;4.89;58.62;102817.88;5005952;28;20425;-76
2022/04/17 05:45:30;;;;;;;8.90;6.85;;;;;;;4.95;58.74;102819.50;5002053;28;20033;-74
2022/04/17 05:47:56;;;;;;;10.65;7.25;;;;;;;4.96;58.52;102824.69;5010591;28;20030;-76
2022/04/17 05:50:22;;;;;;;10.32;6.90;;;;;;;5.06;58.61;102824.50;5010260;28;20057;-76
2022/04/17 05:52:47;;;;;;;8.07;6.88;;;;;;;5.07;58.22;102815.78;4988776;28;20125;-76
2022/04/17 05:55:14;;;;;;;12.43;6.35;;;;;;;5.17;58.69;102825.16;4999655;28;20041;-74
2022/04/17 05:57:40;;;;;;;8.70;7.03;;;;;;;5.23;58.47;102828.53;5007656;28;20030;-74
2022/04/17 06:00:08;;;;;;;8.98;6.53;;;;;;;5.29;58.40;102822.31;5001007;28;20046;-74
2022/04/17 06:02:35;;;;;;;8.73;6.50;;;;;;;5.32;57.97;102822.25;4998886;28;20030;-74
2022/04/17 06:05:02;;;;;;;10.32;6.60;;;;;;;5.38;57.79;102819.53;5005136;28;20025;-74
2022/04/17 06:07:29;;;;;;;7.93;6.70;;;;;;;5.45;57.45;102818.50;5002711;28;20044;-74
2022/04/17 06:09:54;;;;;;;9.35;6.47;;;;;;;5.51;58.07;102820.97;5006395;28;20022;-74
2022/04/17 06:12:20;;;;;;;9.38;6.65;;;;;;;5.59;57.22;102813.84;5004625;28;20033;-74
2022/04/17 06:14:46;;;;;;;11.30;6.72;;;;;;;5.64;57.51;102813.75;4975257;28;20037;-74
2022/04/17 06:17:11;;;;;;;8.00;6.38;;;;;;;5.72;57.30;102822.28;5005413;28;20022;-74
2022/04/17 06:19:36;;;;;;;9.05;6.20;;;;;;;5.79;57.13;102817.78;4976679;28;20475;-74
2022/04/17 06:22:07;;;;;;;11.00;6.32;;;;;;;5.85;56.80;102810.66;5001330;28;20401;-74
2022/04/17 06:24:32;;;;;;;11.18;6.30;;;;;;;5.92;56.70;102809.66;5006691;28;20060;-74
2022/04/17 06:26:57;;;;;;;8.00;5.72;;;;;;;6.00;56.58;102806.84;5003141;28;20470;-76
2022/04/17 06:29:22;;;;;;;7.40;5.43;;;;;;;6.09;56.35;102801.44;4991109;28;20465;-76
2022/04/17 06:31:48;;;;;;;10.15;5.60;;;;;;;6.20;55.74;102809.88;5009344;28;20608;-76
2022/04/17 06:34:13;;;;;;;7.32;5.47;;;;;;;6.28;55.54;102807.06;5005477;28;20497;-75
2022/04/17 06:36:42;;;;;;;6.78;5.10;;;;;;;6.38;54.63;102805.06;4999777;28;20108;-74
2022/04/17 06:39:08;;;;;;;6.40;4.97;;;;;;;6.49;54.20;102810.91;5001047;28;20018;-75
2022/04/17 06:41:33;;;;;;;6.35;4.82;;;;;;;6.59;54.00;102809.78;4984555;28;20034;-75
2022/04/17 06:43:59;;;;;;;7.32;4.47;;;;;;;6.69;53.70;102802.53;5001810;28;20032;-74
2022/04/17 06:46:26;;;;;;;7.75;4.55;;;;;;;6.77;52.75;102806.66;4998902;28;20589;-74
2022/04/17 06:48:51;;;;;;;5.85;4.38;;;;;;;6.89;52.98;102814.22;4984459;28;20118;-74
2022/04/17 06:51:22;;;;;;;6.28;4.32;;;;;;;7.01;51.80;102806.91;5001832;28;20105;-75
2022/04/17 06:53:48;;;;;;;7.32;4.30;;;;;;;7.10;52.32;102809.25;5000442;28;20056;-74
2022/04/17 06:56:18;;;;;;;6.28;4.55;;;;;;;7.21;52.39;102791.53;5000012;28;20658;-74
2022/04/17 06:58:47;;;;;;;5.10;4.43;;;;;;;7.32;51.85;102805.16;5004366;28;20056;-74
2022/04/17 07:01:15;;;;;;;8.35;4.65;;;;;;;7.42;51.46;102796.13;4997278;28;20482;-75
2022/04/17 07:03:41;;;;;;;6.43;4.63;;;;;;;7.50;51.54;102793.25;4997811;28;20053;-74
2022/04/17 07:06:07;;;;;;;7.22;4.80;;;;;;;7.62;51.31;102792.06;5005775;28;20021;-74
2022/04/17 07:08:33;;;;;;;6.45;4.43;;;;;;;7.74;51.21;102796.91;5002937;28;20041;-74
2022/04/17 07:11:08;;;;;;;5.03;4.40;;;;;;;7.83;50.69;102791.38;4983316;28;20038;-74
2022/04/17 07:13:36;;;;;;;8.48;4.78;;;;;;;7.95;51.00;102788.38;5006829;28;20034;-74
2022/04/17 07:16:01;;;;;;;6.80;4.97;;;;;;;8.05;50.80;102783.72;5007345;28;20020;-74
2022/04/17 07:18:27;;;;;;;5.55;4.38;;;;;;;8.11;49.72;102781.75;5005508;28;20030;-74
2022/04/17 07:20:52;;;;;;;4.85;4.35;;;;;;;8.26;49.37;102779.53;4936393;28;20055;-74
2022/04/17 07:23:18;;;;;;;5.78;4.53;;;;;;;8.39;49.36;102783.47;4950011;29;20039;-74
2022/04/17 07:25:44;;;;;;;5.43;4.10;;;;;;;8.46;49.13;102771.88;4950563;29;20471;-74
2022/04/17 07:28:14;;;;;;;5.53;4.55;;;;;;;8.61;49.33;102767.88;4953517;28;20040;-74
2022/04/17 07:30:40;;;;;;;6.53;4.55;;;;;;;8.72;48.77;102766.56;4948990;29;20039;-74
2022/04/17 07:33:05;;;;;;;7.82;4.25;;;;;;;8.84;48.84;102774.94;4950352;29;20110;-74
2022/04/17 07:35:32;;;;;;;7.03;4.15;;;;;;;8.95;47.71;102770.16;4965861;28;20031;-74
2022/04/17 07:37:58;;;;;;;5.75;4.07;;;;;;;9.04;47.41;102765.41;4949963;29;20137;-73
2022/04/17 07:40:26;;;;;;;6.85;4.70;;;;;;;9.18;47.37;102764.91;4948259;29;20034;-73
2022/04/17 07:43:05;;;;;;;5.32;4.00;;;;;;;9.25;48.39;102750.66;4949684;29;20031;-76
2022/04/17 07:45:33;;;;;;;5.78;4.38;;;;;;;9.42;48.08;102755.25;4949558;28;20027;-74
2022/04/17 07:47:59;;;;;;;5.75;4.22;;;;;;;9.58;47.37;102755.50;4948629;29;20078;-73
2022/04/17 07:50:26;;;;;;;5.55;4.00;;;;;;;9.73;46.80;102765.41;4949614;29;20031;-74
2022/04/17 07:52:55;;;;;;;5.22;4.05;;;;;;;9.82;46.30;102757.16;4944179;28;20558;-73
2022/04/17 07:55:22;;;;;;;5.07;4.10;;;;;;;9.98;46.57;102758.25;4948305;29;20030;-75
2022/04/17 07:58:34;;;;;;;6.47;3.88;;;;;;;10.10;45.84;102764.78;4950707;28;20054;-74
2022/04/17 08:00:45;;;;;;;6.10;4.25;;;;;;;10.22;45.16;102747.66;4946669;29;20094;-75
2022/04/17 08:03:24;;;;;;;6.13;4.20;;;;;;;10.37;44.85;102747.00;4950834;29;20027;-75
2022/04/17 08:05:50;;;;;;;5.38;3.95;;;;;;;10.48;44.53;102749.22;4948380;29;20119;-76
2022/04/17 08:08:16;;;;;;;5.63;3.92;;;;;;;10.61;45.14;102750.38;4947788;28;20039;-75
2022/04/17 08:10:42;;;;;;;7.57;4.18;;;;;;;10.74;45.14;102745.41;4952451;29;20035;-75
2022/04/17 08:13:08;;;;;;;7.28;3.55;;;;;;;10.88;44.50;102743.91;4951342;29;20031;-75
2022/04/17 08:15:36;;;;;;;6.22;4.15;;;;;;;11.03;44.31;102742.34;4953269;28;20483;-74
2022/04/17 08:18:01;;;;;;;5.18;4.03;;;;;;;11.13;43.96;102745.41;4953113;29;20097;-74
2022/04/17 08:20:26;;;;;;;5.47;3.58;;;;;;;11.30;44.02;102746.34;4953054;29;20031;-74
2022/04/17 08:22:52;;;;;;;5.53;4.10;;;;;;;11.45;43.46;102746.56;4953294;28;20031;-75
2022/04/17 08:25:22;;;;;;;6.28;4.03;;;;;;;11.58;43.45;102745.88;4952993;29;20031;-74
2022/04/17 08:27:50;;;;;;;6.82;3.80;;;;;;;11.69;42.64;102742.75;4949959;29;20027;-73
2022/04/17 08:30:27;;;;;;;4.95;4.10;;;;;;;11.83;43.37;102742.97;4952585;29;20034;-73
2022/04/17 08:32:53;;;;;;;6.18;3.95;;;;;;;11.95;42.32;102748.56;4951605;29;20506;-73
2022/04/17 08:35:20;;;;;;;5.57;3.70;;;;;;;12.04;42.46;102738.44;4952189;29;20077;-73
2022/04/17 08:37:46;;;;;;;4.18;3.78;;;;;;;12.17;41.41;102730.75;4953524;28;20031;-73
2022/04/17 08:40:12;;;;;;;4.93;3.60;;;;;;;12.29;40.54;102737.19;4953022;29;20023;-75
2022/04/17 08:42:39;;;;;;;4.78;4.10;;;;;;;12.35;40.64;102721.88;4952683;29;20364;-74
2022/04/17 08:45:07;;;;;;;6.40;3.75;;;;;;;12.51;41.10;102736.00;4952561;29;20834;-73
2022/04/17 08:47:34;;;;;;;4.95;3.83;;;;;;;12.67;41.89;102727.28;4952196;29;20031;-75
2022/04/17 08:50:02;;;;;;;5.75;3.78;;;;;;;12.75;41.17;102720.66;4952272;29;20093;-75
2022/04/17 08:52:30;;;;;;;4.75;4.18;;;;;;;12.88;40.72;102715.59;4950895;29;20031;-75
2022/04/17 08:54:56;;;;;;;4.78;3.75;;;;;;;13.03;39.50;102730.59;4951283;29;20034;-75
2022/04/17 08:57:22;;;;;;;6.70;4.07;;;;;;;13.15;39.86;102723.78;4952195;28;20026;-76
2022/04/17 08:59:48;;;;;;;5.53;3.33;;;;;;;13.26;39.42;102723.25;4951510;29;20146;-75
2022/04/17 09:02:13;;;;;;;4.93;3.42;;;;;;;13.38;39.52;102722.56;4951565;29;20054;-76
2022/04/17 09:04:41;;;;;;;5.70;3.35;;;;;;;13.50;38.05;102721.88;4952431;28;20431;-76
2022/04/17 09:07:08;;;;;;;4.22;3.28;;;;;;;13.64;38.74;102719.31;4948955;29;20356;-74
2022/04/17 09:09:48;;;;;;;4.88;3.00;;;;;;;13.74;38.06;102723.13;4950102;28;20042;-75
2022/04/17 09:12:21;;;;;;;4.85;3.30;;;;;;;13.91;38.28;102718.66;4952360;28;20090;-74
2022/04/17 09:14:47;;;;;;;5.78;3.33;;;;;;;14.01;36.84;102712.75;4951928;29;20110;-74
2022/04/17 09:17:13;;;;;;;9.23;3.50;;;;;;;14.10;36.55;102708.72;4946786;29;20207;-75
2022/04/17 09:19:38;;;;;;;8.20;3.30;;;;;;;14.22;37.19;102707.97;4950576;28;20061;-74
2022/04/17 09:22:06;;;;;;;6.13;3.10;;;;;;;14.35;37.07;102700.16;4941793;29;20032;-72
2022/04/17 09:24:37;;;;;;;3.67;3.15;;;;;;;14.43;36.60;102697.09;4943069;29;20137;-75
2022/04/17 09:27:04;;;;;;;4.20;3.15;;;;;;;14.49;36.38;102700.22;4943309;29;20075;-76
2022/04/17 09:29:39;;;;;;;3.88;2.90;;;;;;;14.60;36.33;102699.56;4942624;28;20043;-76
2022/04/17 09:32:10;;;;;;;3.38;2.90;;;;;;;14.70;36.28;102688.28;4942176;29;20030;-75
2022/04/17 09:34:50;;;;;;;4.90;3.00;;;;;;;14.82;36.23;102696.44;4943599;29;20114;-76
2022/04/17 09:37:17;;;;;;;5.30;3.03;;;;;;;14.88;34.63;102686.31;4941816;29;20536;-76
2022/04/17 09:39:43;;;;;;;3.47;2.90;;;;;;;14.97;35.37;102685.72;4941269;29;20483;-75
2022/04/17 09:42:08;;;;;;;4.28;2.80;;;;;;;15.04;35.06;102687.03;4945348;29;20039;-76
2022/04/17 09:44:49;;;;;;;3.50;3.03;;;;;;;15.17;35.58;102678.28;4958706;28;20027;-75
2022/04/17 09:47:27;;;;;;;4.82;3.20;;;;;;;15.26;35.50;102675.91;4945813;29;20020;-74
2022/04/17 09:49:58;;;;;;;5.97;3.58;;;;;;;15.37;34.46;102661.94;4942200;29;20336;-74
2022/04/17 09:52:31;;;;;;;4.20;3.20;;;;;;;15.54;35.13;102663.50;4941153;29;20323;-74
2022/04/17 09:54:59;;;;;;;4.90;3.33;;;;;;;15.57;35.58;102656.16;4940461;29;20032;-74
2022/04/17 09:57:38;;;;;;;4.63;3.15;;;;;;;15.74;36.20;102646.28;4974586;28;20430;-74
2022/04/17 10:00:10;;;;;;;6.05;3.70;;;;;;;15.81;35.74;102650.22;4941853;29;20495;-74
2022/04/17 10:02:41;;;;;;;4.32;3.10;;;;;;;15.95;36.46;102643.03;4943834;28;20046;-75
2022/04/17 10:05:08;;;;;;;3.65;2.97;;;;;;;16.12;35.18;102633.06;4945999;28;20387;-75
2022/04/17 10:07:36;;;;;;;3.60;3.05;;;;;;;16.17;34.94;102642.41;4942882;29;20043;-75
2022/04/17 10:10:02;;;;;;;3.28;2.80;;;;;;;16.24;33.40;102627.75;4942688;29;20032;-75
2022/04/17 10:12:28;;;;;;;4.13;2.65;;;;;;;16.26;32.34;102619.69;4940512;29;20043;-75
2022/04/17 10:14:55;;;;;;;3.08;2.60;;;;;;;16.41;33.18;102615.97;4944894;29;20035;-74
2022/04/17 10:17:21;;;;;;;3.00;2.53;;;;;;;16.55;32.86;102612.31;4944768;29;20050;-74
2022/04/17 10:19:51;;;;;;;3.30;2.33;;;;;;;16.67;32.74;102613.28;4941963;29;20035;-74
2022/04/17 10:22:20;;;;;;;4.00;2.90;;;;;;;16.73;33.76;102613.69;4940849;28;20035;-74
2022/04/17 10:24:53;;;;;;;6.10;3.00;;;;;;;16.79;34.13;102601.75;4944573;29;20105;-75
2022/04/17 10:27:24;;;;;;;7.35;2.90;;;;;;;16.91;34.70;102606.22;4942833;28;20432;-75
2022/04/17 10:29:56;;;;;;;4.38;2.97;;;;;;;16.97;33.81;102591.63;4944428;28;20033;-75
2022/04/17 10:32:41;;;;;;;4.13;2.60;;;;;;;17.19;34.83;102589.06;4941087;29;20031;-75
2022/04/17 10:35:19;;;;;;;4.30;2.45;;;;;;;17.27;33.54;102592.03;4938982;29;20035;-75
2022/04/17 10:38:13;;;;;;;3.70;2.22;;;;;;;17.45;33.10;102571.16;4965306;28;20122;-75
2022/04/17 10:40:38;;;;;;;;;;;;;;;17.49;35.28;102573.47;4943107;29;20043;-75
2022/04/17 10:43:05;;;;;;;3.50;2.45;;;;;;;17.58;32.10;102573.72;4938859;29;20363;-75
2022/04/17 10:45:33;;;;;;;5.57;2.65;;;;;;;17.74;32.04;102563.66;4941882;29;20078;-75
2022/04/17 10:48:09;;;;;;;3.50;2.17;;;;;;;17.93;32.35;102563.91;4942314;29;20027;-75
2022/04/17 10:51:11;;;;;;;3.03;2.10;;;;;;;17.99;32.81;102554.59;4939226;29;20055;-75
2022/04/17 10:53:49;;;;;;;3.53;2.53;;;;;;;18.12;31.99;102552.69;4939027;29;20125;-75
2022/04/17 10:56:16;;;;;;;2.80;2.30;;;;;;;18.28;31.82;102546.97;4938750;29;20062;-75
2022/04/17 10:58:50;;;;;;;3.63;2.28;;;;;;;18.27;31.23;102539.94;4941535;29;20123;-75
2022/04/17 11:01:16;;;;;;;4.00;2.60;;;;;;;18.35;30.30;102541.03;4946001;28;20027;-74
2022/04/17 11:03:55;;;;;;;3.15;2.40;;;;;;;18.56;31.01;102534.97;4936850;29;20487;-74
2022/04/17 11:06:31;;;;;;;6.43;2.40;;;;;;;18.50;29.51;102535.47;4942853;29;20027;-73
2022/04/17 11:09:24;;;;;;;3.60;2.72;;;;;;;18.54;31.27;102535.09;4952468;28;20082;-74
2022/04/17 11:11:50;;;;;;;3.95;2.35;;;;;;;18.63;29.57;102531.69;4940144;28;20070;-75
2022/04/17 11:14:19;;;;;;;4.10;2.60;;;;;;;18.69;29.69;102528.53;4950251;28;20446;-75
2022/04/17 11:17:00;;;;;;;4.53;2.28;;;;;;;18.76;30.57;102526.22;4955958;28;20037;-75
2022/04/17 11:19:28;;;;;;;4.10;2.30;;;;;;;18.94;29.17;102524.72;4958699;28;20078;-74
2022/04/17 11:21:56;;;;;;;4.05;2.00;;;;;;;19.02;28.30;102518.72;4944147;29;20081;-73
2022/04/17 11:24:22;;;;;;;3.33;1.80;;;;;;;19.13;28.18;102508.00;4935786;29;20042;-73
2022/04/17 11:27:09;;;;;;;3.75;1.60;;;;;;;19.16;28.42;102507.75;4948565;29;20093;-74
2022/04/17 11:29:40;;;;;;;5.30;1.60;;;;;;;19.27;27.64;102499.69;4950901;28;20035;-73
2022/04/17 11:32:18;;;;;;;3.25;1.70;;;;;;;19.22;27.46;102495.72;4949761;29;20372;-73
2022/04/17 11:34:52;;;;;;;3.03;1.80;;;;;;;19.40;26.82;102504.84;4951827;29;20023;-74
2022/04/17 11:37:22;;;;;;;4.25;2.08;;;;;;;19.45;26.19;102502.63;4950642;29;20027;-74
2022/04/17 11:39:49;;;;;;;1.67;1.58;;;;;;;19.48;25.49;102485.50;4951384;28;20025;-74
2022/04/17 11:42:15;;;;;;;2.63;1.92;;;;;;;19.64;27.19;102481.41;4951890;28;20023;-74
2022/04/17 11:44:41;;;;;;;3.17;1.85;;;;;;;19.80;26.59;102486.28;4950752;29;20034;-74